createdAt,value
2019-04-27T00:00:00.011Z,48.33
2019-04-27T00:02:50.388Z,53.10
2019-04-27T00:05:38.692Z,50.10
2019-04-27T00:08:35.615Z,52.50
2019-04-27T00:11:23.543Z,53.27
2019-04-27T00:13:53.575Z,45.43
2019-04-27T00:16:50.810Z,51.73
2019-04-27T00:19:38.506Z,53.40
2019-04-27T00:22:19.363Z,58.27
2019-04-27T00:24:48.640Z,55.93
2019-04-27T00:27:18.107Z,50.57
2019-04-27T00:29:47.441Z,59.00
2019-04-27T00:32:16.830Z,58.80
2019-04-27T00:34:46.311Z,56.73
2019-04-27T00:37:46.848Z,56.83
2019-04-27T00:40:44.473Z,58.23
2019-04-27T00:43:14.055Z,58.97
2019-04-27T00:45:43.759Z,55.13
2019-04-27T00:48:13.342Z,59.00
2019-04-27T00:50:43.894Z,56.90
2019-04-27T00:53:13.509Z,53.43
2019-04-27T00:55:59.889Z,59.10
2019-04-27T00:58:48.315Z,59.53
2019-04-27T01:01:25.502Z,57.17
2019-04-27T01:04:17.560Z,54.20
2019-04-27T01:06:47.076Z,56.97
2019-04-27T01:09:17.175Z,54.60
2019-04-27T01:11:46.440Z,59.57
2019-04-27T01:14:15.854Z,56.27
2019-04-27T01:16:45.192Z,57.43
2019-04-27T01:19:14.722Z,61.97
2019-04-27T01:21:44.332Z,53.97
2019-04-27T01:24:13.678Z,54.57
2019-04-27T01:27:04.523Z,56.43
2019-04-27T01:29:36.981Z,54.10
2019-04-27T01:32:08.650Z,55.30
2019-04-27T01:34:39.658Z,52.57
2019-04-27T01:37:10.715Z,58.83
2019-04-27T01:39:42.449Z,58.80
2019-04-27T01:42:14.058Z,54.53
2019-04-27T01:44:43.442Z,52.03
2019-04-27T01:47:12.852Z,61.53
2019-04-27T01:49:43.279Z,53.63
2019-04-27T01:52:12.682Z,58.60
2019-04-27T01:54:42.471Z,56.60
2019-04-27T01:57:12.288Z,55.37
2019-04-27T01:59:41.415Z,56.20
2019-04-27T02:02:30.327Z,54.77
2019-04-27T02:05:29.052Z,54.47
2019-04-27T02:07:59.228Z,53.93
2019-04-27T02:10:29.279Z,56.27
2019-04-27T02:12:58.809Z,56.80
2019-04-27T02:15:29.353Z,58.33
2019-04-27T02:17:59.637Z,57.50
2019-04-27T02:20:30.110Z,58.13
2019-04-27T02:22:59.340Z,59.93
2019-04-27T02:25:29.446Z,57.90
2019-04-27T02:28:04.235Z,58.17
2019-04-27T02:30:58.302Z,57.70
2019-04-27T02:33:46.876Z,54.20
2019-04-27T02:36:16.468Z,60.30
2019-04-27T02:38:45.987Z,62.20
2019-04-27T02:41:15.453Z,58.40
2019-04-27T02:44:19.938Z,55.43
2019-04-27T02:46:50.404Z,60.60
2019-04-27T02:49:20.225Z,59.90
2019-04-27T02:52:04.894Z,57.93
2019-04-27T02:54:34.066Z,60.67
2019-04-27T02:57:03.489Z,60.17
2019-04-27T02:59:33.343Z,61.60
2019-04-27T03:02:10.521Z,60.57
2019-04-27T03:04:40.108Z,60.43
2019-04-27T03:07:11.409Z,60.10
2019-04-27T03:09:40.090Z,63.73
2019-04-27T03:12:10.364Z,62.73
2019-04-27T03:15:10.210Z,61.40
2019-04-27T03:17:59.568Z,59.97
2019-04-27T03:20:34.235Z,60.43
2019-04-27T03:23:06.042Z,60.33
2019-04-27T03:25:41.588Z,59.30
2019-04-27T03:28:12.877Z,62.67
2019-04-27T03:30:43.523Z,60.07
2019-04-27T03:33:12.752Z,64.00
2019-04-27T03:35:43.692Z,61.03
2019-04-27T03:38:13.104Z,61.70
2019-04-27T03:40:42.816Z,65.13
2019-04-27T03:43:21.488Z,60.70
2019-04-27T03:45:52.773Z,60.93
2019-04-27T03:48:22.334Z,67.90
2019-04-27T03:51:02.843Z,63.60
2019-04-27T03:53:49.910Z,61.80
2019-04-27T03:56:41.024Z,62.97
2019-04-27T03:59:32.567Z,63.53
2019-04-27T04:02:02.747Z,62.13
2019-04-27T04:04:32.803Z,59.37
2019-04-27T04:07:15.660Z,61.43
2019-04-27T04:09:45.477Z,63.63
2019-04-27T04:12:22.057Z,62.40
2019-04-27T04:14:51.057Z,65.03
2019-04-27T04:17:21.423Z,63.33
2019-04-27T04:19:57.444Z,66.53
2019-04-27T04:22:22.082Z,67.73
2019-04-27T04:24:51.203Z,65.03
2019-04-27T04:27:20.979Z,62.30
2019-04-27T04:29:50.015Z,65.23
2019-04-27T04:32:19.489Z,61.67
2019-04-27T04:34:50.244Z,62.87
2019-04-27T04:37:20.031Z,66.23
2019-04-27T04:39:53.067Z,64.67
2019-04-27T04:42:36.157Z,68.30
2019-04-27T04:45:16.764Z,64.53
2019-04-27T04:47:49.920Z,65.50
2019-04-27T04:50:22.484Z,61.57
2019-04-27T04:52:50.349Z,64.53
2019-04-27T04:55:20.421Z,63.17
2019-04-27T04:57:50.698Z,63.37
2019-04-27T05:00:20.040Z,64.13
2019-04-27T05:02:49.289Z,67.03
2019-04-27T05:05:19.419Z,66.83
2019-04-27T05:07:49.123Z,63.37
2019-04-27T05:10:18.931Z,63.37
2019-04-27T05:12:49.043Z,62.97
2019-04-27T05:15:20.726Z,62.43
2019-04-27T05:17:51.089Z,63.53
2019-04-27T05:20:26.780Z,64.03
2019-04-27T05:22:55.700Z,70.57
2019-04-27T05:25:24.907Z,65.90
2019-04-27T05:27:54.439Z,76.27
2019-04-27T05:30:23.515Z,72.20
2019-04-27T05:32:52.891Z,80.57
2019-04-27T05:35:22.206Z,73.93
2019-04-27T05:37:51.304Z,75.43
2019-04-27T05:40:20.801Z,77.47
2019-04-27T05:42:55.049Z,80.80
2019-04-27T05:46:12.473Z,75.93
2019-04-27T05:48:42.438Z,71.23
2019-04-27T05:51:11.574Z,71.20
2019-04-27T05:53:40.706Z,69.10
2019-04-27T05:56:09.867Z,73.17
2019-04-27T05:58:39.338Z,66.63
2019-04-27T06:01:10.880Z,68.83
2019-04-27T06:03:39.808Z,62.03
2019-04-27T06:06:10.002Z,62.87
2019-04-27T06:08:41.065Z,71.50
2019-04-27T06:11:10.379Z,63.00
2019-04-27T06:13:39.442Z,62.07
2019-04-27T06:16:09.442Z,61.30
2019-04-27T06:18:39.298Z,59.60
2019-04-27T06:21:09.766Z,58.57
2019-04-27T06:23:39.176Z,56.00
2019-04-27T06:26:11.407Z,53.10
2019-04-27T06:28:39.794Z,52.27
2019-04-27T06:31:09.039Z,54.33
2019-04-27T06:33:39.198Z,49.43
2019-04-27T06:36:10.008Z,49.87
2019-04-27T06:38:39.481Z,47.87
2019-04-27T06:41:09.982Z,49.90
2019-04-27T06:43:40.587Z,51.77
2019-04-27T06:46:09.872Z,51.60
2019-04-27T06:48:39.531Z,50.93
2019-04-27T06:51:09.778Z,52.27
2019-04-27T06:53:39.551Z,48.83
2019-04-27T06:56:09.107Z,46.93
2019-04-27T06:58:38.906Z,49.73
2019-04-27T07:01:09.495Z,49.13
2019-04-27T07:03:39.627Z,45.13
2019-04-27T07:06:09.028Z,44.67
2019-04-27T07:08:40.138Z,45.13
2019-04-27T07:11:11.527Z,41.57
2019-04-27T07:13:40.046Z,37.80
2019-04-27T07:16:13.766Z,37.57
2019-04-27T07:18:42.913Z,33.67
2019-04-27T07:21:18.918Z,35.67
2019-04-27T07:23:59.484Z,37.60
2019-04-27T07:26:30.349Z,34.67
2019-04-27T07:28:59.989Z,38.37
2019-04-27T13:34:29.230Z,33.67
2019-04-27T13:37:01.227Z,7.60
2019-04-27T13:39:30.423Z,8.83
2019-04-27T13:42:00.629Z,10.53
2019-04-27T13:44:29.824Z,10.37
2019-04-27T13:47:17.196Z,10.27
2019-04-27T13:50:13.159Z,12.37
2019-04-27T13:52:41.976Z,14.17
2019-04-27T13:55:11.118Z,14.60
2019-04-27T13:57:50.021Z,10.80
2019-04-27T14:00:12.906Z,11.30
2019-04-27T14:02:44.044Z,9.13
2019-04-27T14:05:12.852Z,7.20
2019-04-27T14:07:42.117Z,5.93
2019-04-27T14:10:11.219Z,9.33
2019-04-27T14:12:40.123Z,4.53
2019-04-27T14:15:09.486Z,7.47
2019-04-27T14:17:39.191Z,5.73
2019-04-27T14:20:09.728Z,4.87
2019-04-27T14:22:38.948Z,5.20
2019-04-27T14:25:08.595Z,4.50
2019-04-27T14:27:41.250Z,4.97
2019-04-27T14:30:13.808Z,5.63
2019-04-27T14:32:43.467Z,5.47
2019-04-27T14:35:13.094Z,5.37
2019-04-27T14:37:42.196Z,4.97
2019-04-27T14:40:11.582Z,4.80
2019-04-27T14:42:40.838Z,5.70
2019-04-27T14:45:10.685Z,6.30
2019-04-27T14:47:40.035Z,7.73
2019-04-27T14:50:09.373Z,6.53
2019-04-27T14:52:40.876Z,5.93
2019-04-27T14:55:09.878Z,5.37
2019-04-27T14:57:39.451Z,6.47
2019-04-27T15:00:10.359Z,6.17
2019-04-27T15:02:39.462Z,6.70
2019-04-27T15:05:08.712Z,5.50
2019-04-27T15:07:37.635Z,6.10
2019-04-27T15:10:07.410Z,6.10
2019-04-27T15:12:36.689Z,5.37
2019-04-27T15:15:07.366Z,4.53
2019-04-27T15:17:36.561Z,3.87
2019-04-27T15:20:13.391Z,6.03
2019-04-27T15:22:42.553Z,4.80
2019-04-27T15:25:15.202Z,3.83
2019-04-27T15:27:47.401Z,7.33
2019-04-27T15:30:22.312Z,7.13
2019-04-27T15:33:10.443Z,6.90
2019-04-27T15:35:45.784Z,6.47
2019-04-27T15:38:19.632Z,7.10
2019-04-27T15:41:17.100Z,7.63
2019-04-27T15:43:48.663Z,6.30
2019-04-27T15:46:18.451Z,7.73
2019-04-27T15:48:48.753Z,7.67
2019-04-27T15:51:20.993Z,8.90
2019-04-27T15:53:52.563Z,10.10
2019-04-27T15:56:21.626Z,7.93
2019-04-27T15:58:50.133Z,10.73
2019-04-27T16:01:19.379Z,10.77
2019-04-27T16:03:48.629Z,9.77
2019-04-27T16:06:19.063Z,9.83
2019-04-27T16:08:49.209Z,11.43
2019-04-27T16:11:19.785Z,10.73
2019-04-27T16:13:49.356Z,9.90
2019-04-27T16:16:19.060Z,10.43
2019-04-27T16:18:49.101Z,10.60
2019-04-27T16:21:20.262Z,12.63
2019-04-27T16:23:49.456Z,11.70
2019-04-27T16:26:18.694Z,11.83
2019-04-27T16:28:53.015Z,12.50
2019-04-27T16:31:20.451Z,9.90
2019-04-27T16:33:49.891Z,10.17
2019-04-27T16:36:19.759Z,12.87
2019-04-27T16:38:59.514Z,11.33
2019-04-27T16:41:28.416Z,14.50
2019-04-27T16:43:58.135Z,10.33
2019-04-27T16:46:28.492Z,11.07
2019-04-27T16:48:59.490Z,11.57
2019-04-27T16:51:29.720Z,10.97
2019-04-27T16:54:00.359Z,10.57
2019-04-27T16:56:29.943Z,11.17
2019-04-27T16:59:11.416Z,10.27
2019-04-27T17:01:30.813Z,11.87
2019-04-27T17:04:00.114Z,12.40
2019-04-27T17:06:29.555Z,12.63
2019-04-27T17:09:05.525Z,10.13
2019-04-27T17:11:29.886Z,9.37
2019-04-27T17:14:06.020Z,11.87
2019-04-27T17:17:03.587Z,10.53
2019-04-27T17:19:35.800Z,10.47
2019-04-27T17:22:05.248Z,9.87
2019-04-27T17:24:41.654Z,11.40
2019-04-27T17:27:11.084Z,10.80
2019-04-27T17:29:42.083Z,10.90
2019-04-27T17:32:29.359Z,11.53
2019-04-27T17:35:02.487Z,9.13
2019-04-27T17:37:29.919Z,10.67
2019-04-27T17:40:00.771Z,9.03
2019-04-27T17:42:30.614Z,10.03
2019-04-27T17:45:00.594Z,9.80
2019-04-27T17:47:30.092Z,11.07
2019-04-27T17:49:59.295Z,10.23
2019-04-27T17:52:29.297Z,11.53
2019-04-27T17:55:00.581Z,12.87
2019-04-27T17:57:30.539Z,10.97
2019-04-27T18:00:03.140Z,10.90
2019-04-27T18:02:33.837Z,9.67
2019-04-27T18:05:02.036Z,12.30
2019-04-27T18:07:34.884Z,12.33
2019-04-27T18:10:02.350Z,11.10
2019-04-27T18:12:34.758Z,12.03
2019-04-27T18:15:04.086Z,13.67
2019-04-27T18:17:34.695Z,10.53
2019-04-27T18:20:08.411Z,10.43
2019-04-27T18:22:42.549Z,10.47
2019-04-27T18:25:11.790Z,11.03
2019-04-27T18:28:14.845Z,8.67
2019-04-27T18:31:15.475Z,9.27
2019-04-27T18:33:42.274Z,11.60
2019-04-27T18:36:14.124Z,10.73
2019-04-27T18:38:42.453Z,9.60
2019-04-27T18:41:11.952Z,12.10
2019-04-27T18:43:46.333Z,9.77
2019-04-27T18:46:14.882Z,9.90
2019-04-27T18:49:02.294Z,9.43
2019-04-27T18:51:38.415Z,10.70
2019-04-27T18:54:08.160Z,8.47
2019-04-27T18:56:38.402Z,9.27
2019-04-27T18:59:08.491Z,9.23
2019-04-27T19:01:37.893Z,8.73
2019-04-27T19:04:08.679Z,10.07
2019-04-27T19:06:39.112Z,10.43
2019-04-27T19:09:08.496Z,10.00
2019-04-27T19:11:38.339Z,8.07
2019-04-27T19:14:08.293Z,8.17
2019-04-27T19:16:38.375Z,9.43
2019-04-27T19:19:08.737Z,8.50
2019-04-27T19:21:40.333Z,9.40
2019-04-27T19:24:09.250Z,7.27
2019-04-27T19:26:54.303Z,8.40
2019-04-27T19:29:26.679Z,9.37
2019-04-27T19:31:58.653Z,11.60
2019-04-27T19:34:28.604Z,11.30
2019-04-27T19:36:59.204Z,12.80
2019-04-27T19:39:28.694Z,15.77
2019-04-27T19:42:01.378Z,15.33
2019-04-27T19:44:29.174Z,12.73
2019-04-27T19:47:00.175Z,10.60
2019-04-27T19:49:31.576Z,6.57
2019-04-27T19:52:02.161Z,9.23
2019-04-27T19:54:30.981Z,10.27
2019-04-27T19:57:10.183Z,6.67
2019-04-27T19:59:48.905Z,7.07
2019-04-27T20:02:20.533Z,7.37
2019-04-27T20:04:56.069Z,6.17
2019-04-27T20:07:28.429Z,6.43
2019-04-27T20:09:59.515Z,5.83
2019-04-27T20:12:29.025Z,6.93
2019-04-27T20:14:58.282Z,4.87
2019-04-27T20:17:31.567Z,6.93
2019-04-27T20:20:01.098Z,6.60
2019-04-27T20:22:30.198Z,7.13
2019-04-27T20:25:02.150Z,5.87
2019-04-27T20:27:45.174Z,5.80
2019-04-27T20:30:03.036Z,6.83
2019-04-27T20:32:35.674Z,8.63
2019-04-27T20:35:05.469Z,6.60
2019-04-27T20:37:34.679Z,8.67
2019-04-27T20:40:04.204Z,4.83
2019-04-27T20:42:33.486Z,7.27
2019-04-27T20:45:15.847Z,7.53
2019-04-27T20:47:41.188Z,9.13
2019-04-27T20:50:13.113Z,6.77
2019-04-27T20:53:01.254Z,5.67
2019-04-27T20:55:32.199Z,4.60
2019-04-27T20:58:02.796Z,5.07
2019-04-27T21:00:32.192Z,7.20
2019-04-27T21:03:19.473Z,4.47
2019-04-27T21:06:07.750Z,4.57
2019-04-27T21:08:37.878Z,3.50
2019-04-27T21:11:14.483Z,4.20
2019-04-27T21:13:46.627Z,6.13
2019-04-27T21:16:15.905Z,5.03
2019-04-27T21:18:48.626Z,4.07
2019-04-27T21:21:19.030Z,5.60
2019-04-27T21:23:51.478Z,5.07
2019-04-27T21:26:21.474Z,6.93
2019-04-27T21:28:51.466Z,7.47
2019-04-27T21:31:21.269Z,5.00
2019-04-27T21:33:50.473Z,4.17
2019-04-27T21:36:22.168Z,3.13
2019-04-27T21:38:51.359Z,4.40
2019-04-27T21:41:20.880Z,6.77
2019-04-27T21:43:51.666Z,5.30
2019-04-27T21:46:21.008Z,5.83
2019-04-27T21:48:51.812Z,5.37
2019-04-27T21:51:21.816Z,6.93
2019-04-27T21:54:16.452Z,7.47
2019-04-27T21:56:45.685Z,8.63
2019-04-27T21:59:14.559Z,8.00
2019-04-27T22:01:51.648Z,8.43
2019-04-27T22:04:22.531Z,10.03
2019-04-27T22:06:54.998Z,8.73
2019-04-27T22:09:26.298Z,7.90
2019-04-27T22:11:55.626Z,7.20
2019-04-27T22:14:24.816Z,9.00
2019-04-27T22:16:53.845Z,7.20
2019-04-27T22:19:23.247Z,7.00
2019-04-27T22:21:53.740Z,7.63
2019-04-27T22:24:27.851Z,10.30
2019-04-27T22:26:57.116Z,8.07
2019-04-27T22:29:27.922Z,9.67
2019-04-27T22:32:11.939Z,8.90
2019-04-27T22:34:36.579Z,9.60
2019-04-27T22:37:11.254Z,9.40
2019-04-27T22:39:52.545Z,10.37
2019-04-27T22:42:41.526Z,8.23
2019-04-27T22:45:21.071Z,8.70
2019-04-27T22:47:51.229Z,9.47
2019-04-27T22:50:21.033Z,9.67
2019-04-27T22:52:50.630Z,9.70
2019-04-27T22:55:21.853Z,8.27
2019-04-27T22:58:11.699Z,11.37
2019-04-27T23:01:01.378Z,10.63
2019-04-27T23:03:34.271Z,9.83
2019-04-27T23:06:03.280Z,8.87
2019-04-27T23:08:32.200Z,11.50
2019-04-27T23:11:02.619Z,13.50
2019-04-27T23:13:31.596Z,9.77
2019-04-27T23:16:02.147Z,8.93
2019-04-27T23:18:31.270Z,10.13
2019-04-27T23:21:01.572Z,10.73
2019-04-27T23:23:31.383Z,12.90
2019-04-27T23:26:01.773Z,12.03
2019-04-27T23:28:32.985Z,12.43
2019-04-27T23:31:24.423Z,14.27
2019-04-27T23:33:53.643Z,12.47
2019-04-27T23:36:22.857Z,10.70
2019-04-27T23:38:52.274Z,10.93
2019-04-27T23:41:21.174Z,15.23
2019-04-27T23:43:50.191Z,10.87
2019-04-27T23:46:21.374Z,13.03
2019-04-27T23:48:52.034Z,13.90
2019-04-27T23:51:34.341Z,14.67
2019-04-27T23:54:03.594Z,15.67
2019-04-27T23:56:32.604Z,13.37
2019-04-27T23:59:02.033Z,13.33
